Terminal Aerodrome Forecast
Issued by NWS Nashville, TN

Home | Current Version | Previous Version | Text Only | Print | Product List | Glossary On
Versions: 1 2 3 4 5 6 7 8 9 10 11 12 13 14 15 16
445
FTUS44 KOHX 230818 AAC
TAFCSV
TAF AMD
KCSV 230818Z 2308/2406 11010G18KT P6SM -SHRA BKN015 BKN050
      TEMPO 2308/2312 2SM +SHRA BR SCT015 BKN050
     FM231400 13010G17KT P6SM VCSH OVC025
     FM232200 12006KT 6SM -SHRA OVC025
     FM240500 13004KT 4SM -SHRA OVC012=

USA.gov is the U.S. government's official web portal to all federal, state and local government web resources and services.